sensor_id;sensor_type;location;lat;lon;timestamp;P1;durP1;ratioP1;P2;durP2;ratioP2
3297;SDS011;1661;53.572;10.174;2024-01-30T00:00:38;13.63;;;9.83;;
3297;SDS011;1661;53.572;10.174;2024-01-30T00:03:06;12.57;;;9.93;;
3297;SDS011;1661;53.572;10.174;2024-01-30T00:05:33;17.50;;;8.97;;
3297;SDS011;1661;53.572;10.174;2024-01-30T00:08:00;12.70;;;9.33;;
3297;SDS011;1661;53.572;10.174;2024-01-30T00:10:26;10.10;;;8.30;;
3297;SDS011;1661;53.572;10.174;2024-01-30T00:12:53;13.67;;;8.70;;
3297;SDS011;1661;53.572;10.174;2024-01-30T00:15:20;16.63;;;9.83;;
3297;SDS011;1661;53.572;10.174;2024-01-30T00:17:48;15.57;;;10.23;;
3297;SDS011;1661;53.572;10.174;2024-01-30T00:20:17;15.00;;;10.00;;
3297;SDS011;1661;53.572;10.174;2024-01-30T00:22:44;21.80;;;12.90;;
3297;SDS011;1661;53.572;10.174;2024-01-30T00:25:10;17.47;;;13.00;;
3297;SDS011;1661;53.572;10.174;2024-01-30T00:27:37;16.30;;;11.30;;
3297;SDS011;1661;53.572;10.174;2024-01-30T00:30:04;13.13;;;9.10;;
3297;SDS011;1661;53.572;10.174;2024-01-30T00:32:32;12.80;;;8.63;;
3297;SDS011;1661;53.572;10.174;2024-01-30T00:35:00;10.40;;;8.50;;
3297;SDS011;1661;53.572;10.174;2024-01-30T00:37:27;17.90;;;10.87;;
3297;SDS011;1661;53.572;10.174;2024-01-30T00:39:53;12.77;;;8.63;;
3297;SDS011;1661;53.572;10.174;2024-01-30T00:42:20;11.67;;;8.80;;
3297;SDS011;1661;53.572;10.174;2024-01-30T00:44:48;13.37;;;10.60;;
3297;SDS011;1661;53.572;10.174;2024-01-30T00:47:15;14.10;;;9.90;;
3297;SDS011;1661;53.572;10.174;2024-01-30T00:49:42;14.60;;;8.40;;
3297;SDS011;1661;53.572;10.174;2024-01-30T00:52:10;11.53;;;9.87;;
3297;SDS011;1661;53.572;10.174;2024-01-30T00:54:37;12.17;;;10.00;;
3297;SDS011;1661;53.572;10.174;2024-01-30T00:57:04;12.40;;;8.60;;
3297;SDS011;1661;53.572;10.174;2024-01-30T00:59:31;13.17;;;10.07;;
3297;SDS011;1661;53.572;10.174;2024-01-30T01:01:58;13.47;;;10.73;;
3297;SDS011;1661;53.572;10.174;2024-01-30T01:04:25;13.67;;;10.20;;
3297;SDS011;1661;53.572;10.174;2024-01-30T01:06:52;12.43;;;9.13;;
3297;SDS011;1661;53.572;10.174;2024-01-30T01:09:20;9.70;;;8.73;;
3297;SDS011;1661;53.572;10.174;2024-01-30T01:11:47;10.53;;;9.13;;
3297;SDS011;1661;53.572;10.174;2024-01-30T01:14:14;12.80;;;9.20;;
3297;SDS011;1661;53.572;10.174;2024-01-30T01:16:41;11.30;;;8.70;;
3297;SDS011;1661;53.572;10.174;2024-01-30T01:19:07;9.87;;;7.70;;
3297;SDS011;1661;53.572;10.174;2024-01-30T01:21:34;17.67;;;9.13;;
3297;SDS011;1661;53.572;10.174;2024-01-30T01:24:01;13.43;;;8.70;;
3297;SDS011;1661;53.572;10.174;2024-01-30T01:26:29;12.80;;;9.03;;
3297;SDS011;1661;53.572;10.174;2024-01-30T01:28:56;12.33;;;8.40;;
3297;SDS011;1661;53.572;10.174;2024-01-30T01:31:23;13.87;;;9.67;;
3297;SDS011;1661;53.572;10.174;2024-01-30T01:33:50;12.97;;;9.43;;
3297;SDS011;1661;53.572;10.174;2024-01-30T01:36:17;9.70;;;8.57;;
3297;SDS011;1661;53.572;10.174;2024-01-30T01:38:43;11.83;;;9.57;;
3297;SDS011;1661;53.572;10.174;2024-01-30T01:41:10;12.67;;;10.20;;
3297;SDS011;1661;53.572;10.174;2024-01-30T01:43:47;16.17;;;10.13;;
3297;SDS011;1661;53.572;10.174;2024-01-30T01:46:14;12.97;;;9.47;;
3297;SDS011;1661;53.572;10.174;2024-01-30T01:48:41;9.77;;;8.00;;
3297;SDS011;1661;53.572;10.174;2024-01-30T01:51:09;10.27;;;8.63;;
3297;SDS011;1661;53.572;10.174;2024-01-30T01:53:37;14.50;;;9.43;;
3297;SDS011;1661;53.572;10.174;2024-01-30T01:56:04;12.97;;;9.73;;
3297;SDS011;1661;53.572;10.174;2024-01-30T01:58:32;16.70;;;10.20;;
3297;SDS011;1661;53.572;10.174;2024-01-30T02:01:00;16.23;;;9.83;;
3297;SDS011;1661;53.572;10.174;2024-01-30T02:03:30;12.13;;;9.77;;
3297;SDS011;1661;53.572;10.174;2024-01-30T02:05:57;11.90;;;9.60;;
3297;SDS011;1661;53.572;10.174;2024-01-30T02:08:24;12.70;;;9.70;;
3297;SDS011;1661;53.572;10.174;2024-01-30T02:10:51;14.37;;;10.13;;
3297;SDS011;1661;53.572;10.174;2024-01-30T02:13:18;14.90;;;9.23;;
3297;SDS011;1661;53.572;10.174;2024-01-30T02:15:48;10.83;;;9.53;;
3297;SDS011;1661;53.572;10.174;2024-01-30T02:18:16;15.07;;;10.47;;
3297;SDS011;1661;53.572;10.174;2024-01-30T02:20:44;15.00;;;9.87;;
3297;SDS011;1661;53.572;10.174;2024-01-30T02:23:14;17.30;;;11.20;;
3297;SDS011;1661;53.572;10.174;2024-01-30T02:25:42;14.57;;;10.47;;
3297;SDS011;1661;53.572;10.174;2024-01-30T02:28:10;10.40;;;9.40;;
3297;SDS011;1661;53.572;10.174;2024-01-30T02:30:37;12.33;;;9.40;;
3297;SDS011;1661;53.572;10.174;2024-01-30T02:33:04;11.77;;;9.63;;
3297;SDS011;1661;53.572;10.174;2024-01-30T02:35:31;11.83;;;9.27;;
3297;SDS011;1661;53.572;10.174;2024-01-30T02:37:58;14.33;;;9.83;;
3297;SDS011;1661;53.572;10.174;2024-01-30T02:40:26;15.40;;;10.37;;
3297;SDS011;1661;53.572;10.174;2024-01-30T02:42:53;18.23;;;10.43;;
3297;SDS011;1661;53.572;10.174;2024-01-30T02:45:20;14.30;;;10.80;;
3297;SDS011;1661;53.572;10.174;2024-01-30T02:47:47;15.03;;;11.17;;
3297;SDS011;1661;53.572;10.174;2024-01-30T02:50:13;10.97;;;8.70;;
3297;SDS011;1661;53.572;10.174;2024-01-30T02:52:41;11.43;;;9.93;;
3297;SDS011;1661;53.572;10.174;2024-01-30T02:55:08;13.53;;;9.53;;
3297;SDS011;1661;53.572;10.174;2024-01-30T02:57:37;12.73;;;10.50;;
3297;SDS011;1661;53.572;10.174;2024-01-30T03:00:04;17.30;;;11.00;;
3297;SDS011;1661;53.572;10.174;2024-01-30T03:02:34;13.40;;;9.47;;
3297;SDS011;1661;53.572;10.174;2024-01-30T03:05:02;10.73;;;9.10;;
3297;SDS011;1661;53.572;10.174;2024-01-30T03:07:29;11.43;;;9.33;;
3297;SDS011;1661;53.572;10.174;2024-01-30T03:09:56;14.00;;;10.30;;
3297;SDS011;1661;53.572;10.174;2024-01-30T03:12:23;17.07;;;12.00;;
3297;SDS011;1661;53.572;10.174;2024-01-30T03:14:51;17.97;;;10.93;;
3297;SDS011;1661;53.572;10.174;2024-01-30T03:17:18;11.40;;;9.87;;
3297;SDS011;1661;53.572;10.174;2024-01-30T03:19:44;16.37;;;11.33;;
3297;SDS011;1661;53.572;10.174;2024-01-30T03:22:11;16.93;;;10.07;;
3297;SDS011;1661;53.572;10.174;2024-01-30T03:24:38;11.97;;;10.10;;
3297;SDS011;1661;53.572;10.174;2024-01-30T03:27:05;11.40;;;9.77;;
3297;SDS011;1661;53.572;10.174;2024-01-30T03:29:32;15.77;;;11.60;;
3297;SDS011;1661;53.572;10.174;2024-01-30T03:32:00;18.00;;;12.10;;
3297;SDS011;1661;53.572;10.174;2024-01-30T03:34:29;13.90;;;10.00;;
3297;SDS011;1661;53.572;10.174;2024-01-30T03:36:55;10.87;;;7.43;;
3297;SDS011;1661;53.572;10.174;2024-01-30T03:39:22;12.73;;;10.60;;
3297;SDS011;1661;53.572;10.174;2024-01-30T03:41:49;17.67;;;11.60;;
3297;SDS011;1661;53.572;10.174;2024-01-30T03:44:16;15.80;;;11.53;;
3297;SDS011;1661;53.572;10.174;2024-01-30T03:46:43;18.73;;;11.53;;
3297;SDS011;1661;53.572;10.174;2024-01-30T03:49:11;14.30;;;10.53;;
3297;SDS011;1661;53.572;10.174;2024-01-30T03:51:38;14.83;;;11.43;;
3297;SDS011;1661;53.572;10.174;2024-01-30T03:54:05;15.33;;;12.10;;
3297;SDS011;1661;53.572;10.174;2024-01-30T03:56:32;18.73;;;10.40;;
3297;SDS011;1661;53.572;10.174;2024-01-30T03:58:59;14.50;;;11.80;;
3297;SDS011;1661;53.572;10.174;2024-01-30T04:01:27;17.67;;;11.53;;
3297;SDS011;1661;53.572;10.174;2024-01-30T04:03:54;19.97;;;11.73;;
3297;SDS011;1661;53.572;10.174;2024-01-30T04:06:22;18.87;;;13.60;;
3297;SDS011;1661;53.572;10.174;2024-01-30T04:08:49;12.90;;;11.40;;
3297;SDS011;1661;53.572;10.174;2024-01-30T04:11:18;16.30;;;11.57;;
3297;SDS011;1661;53.572;10.174;2024-01-30T04:13:45;15.37;;;12.43;;
3297;SDS011;1661;53.572;10.174;2024-01-30T04:16:18;16.20;;;12.30;;
3297;SDS011;1661;53.572;10.174;2024-01-30T04:18:46;15.60;;;13.13;;
3297;SDS011;1661;53.572;10.174;2024-01-30T04:21:12;14.00;;;11.73;;
3297;SDS011;1661;53.572;10.174;2024-01-30T04:23:41;17.57;;;13.40;;
3297;SDS011;1661;53.572;10.174;2024-01-30T04:26:08;17.33;;;12.10;;
3297;SDS011;1661;53.572;10.174;2024-01-30T04:28:35;15.97;;;12.17;;
3297;SDS011;1661;53.572;10.174;2024-01-30T04:31:01;17.83;;;12.80;;
3297;SDS011;1661;53.572;10.174;2024-01-30T04:33:28;20.73;;;13.20;;
3297;SDS011;1661;53.572;10.174;2024-01-30T04:35:55;16.10;;;11.70;;
3297;SDS011;1661;53.572;10.174;2024-01-30T04:38:22;11.20;;;9.70;;
3297;SDS011;1661;53.572;10.174;2024-01-30T04:40:50;13.20;;;11.43;;
3297;SDS011;1661;53.572;10.174;2024-01-30T04:43:16;20.90;;;12.97;;
3297;SDS011;1661;53.572;10.174;2024-01-30T04:45:44;13.97;;;12.30;;
3297;SDS011;1661;53.572;10.174;2024-01-30T04:48:10;21.53;;;13.43;;
3297;SDS011;1661;53.572;10.174;2024-01-30T04:50:37;15.47;;;13.60;;
3297;SDS011;1661;53.572;10.174;2024-01-30T04:53:04;18.30;;;12.50;;
3297;SDS011;1661;53.572;10.174;2024-01-30T04:55:31;15.90;;;12.30;;
3297;SDS011;1661;53.572;10.174;2024-01-30T04:57:59;17.80;;;13.00;;
3297;SDS011;1661;53.572;10.174;2024-01-30T05:00:26;17.83;;;13.70;;
3297;SDS011;1661;53.572;10.174;2024-01-30T05:02:54;16.63;;;13.17;;
3297;SDS011;1661;53.572;10.174;2024-01-30T05:05:21;20.40;;;12.97;;
3297;SDS011;1661;53.572;10.174;2024-01-30T05:07:48;20.70;;;14.30;;
3297;SDS011;1661;53.572;10.174;2024-01-30T05:10:15;22.23;;;14.07;;
3297;SDS011;1661;53.572;10.174;2024-01-30T05:12:44;19.80;;;14.53;;
3297;SDS011;1661;53.572;10.174;2024-01-30T05:15:12;19.67;;;13.67;;
3297;SDS011;1661;53.572;10.174;2024-01-30T05:17:39;17.10;;;12.63;;
3297;SDS011;1661;53.572;10.174;2024-01-30T05:20:06;21.23;;;13.10;;
3297;SDS011;1661;53.572;10.174;2024-01-30T05:22:35;18.70;;;13.70;;
3297;SDS011;1661;53.572;10.174;2024-01-30T05:25:04;16.97;;;14.47;;
3297;SDS011;1661;53.572;10.174;2024-01-30T05:27:32;21.90;;;14.77;;
3297;SDS011;1661;53.572;10.174;2024-01-30T05:29:59;21.07;;;15.03;;
3297;SDS011;1661;53.572;10.174;2024-01-30T05:32:27;21.50;;;13.73;;
3297;SDS011;1661;53.572;10.174;2024-01-30T05:34:54;22.20;;;16.10;;
3297;SDS011;1661;53.572;10.174;2024-01-30T05:37:21;19.43;;;15.23;;
3297;SDS011;1661;53.572;10.174;2024-01-30T05:39:49;12.73;;;11.40;;
3297;SDS011;1661;53.572;10.174;2024-01-30T05:42:16;21.60;;;14.53;;
3297;SDS011;1661;53.572;10.174;2024-01-30T05:44:43;24.87;;;14.07;;
3297;SDS011;1661;53.572;10.174;2024-01-30T05:47:09;17.47;;;14.23;;
3297;SDS011;1661;53.572;10.174;2024-01-30T05:49:37;17.77;;;13.73;;
3297;SDS011;1661;53.572;10.174;2024-01-30T05:52:05;19.43;;;15.33;;
3297;SDS011;1661;53.572;10.174;2024-01-30T05:54:32;22.80;;;15.30;;
3297;SDS011;1661;53.572;10.174;2024-01-30T05:56:59;21.53;;;14.87;;
3297;SDS011;1661;53.572;10.174;2024-01-30T05:59:26;22.27;;;16.90;;
3297;SDS011;1661;53.572;10.174;2024-01-30T06:01:52;21.20;;;14.60;;
3297;SDS011;1661;53.572;10.174;2024-01-30T06:04:19;19.00;;;14.60;;
3297;SDS011;1661;53.572;10.174;2024-01-30T06:06:47;25.30;;;15.00;;
3297;SDS011;1661;53.572;10.174;2024-01-30T06:09:14;18.00;;;13.73;;
3297;SDS011;1661;53.572;10.174;2024-01-30T06:11:41;21.03;;;14.80;;
3297;SDS011;1661;53.572;10.174;2024-01-30T06:14:08;21.90;;;14.40;;
3297;SDS011;1661;53.572;10.174;2024-01-30T06:16:34;20.13;;;14.73;;
3297;SDS011;1661;53.572;10.174;2024-01-30T06:19:01;21.53;;;14.77;;
3297;SDS011;1661;53.572;10.174;2024-01-30T06:21:28;20.77;;;15.23;;
3297;SDS011;1661;53.572;10.174;2024-01-30T06:23:57;22.47;;;16.17;;
3297;SDS011;1661;53.572;10.174;2024-01-30T06:26:23;19.60;;;14.60;;
3297;SDS011;1661;53.572;10.174;2024-01-30T06:28:50;23.10;;;18.17;;
3297;SDS011;1661;53.572;10.174;2024-01-30T06:31:17;19.43;;;15.00;;
3297;SDS011;1661;53.572;10.174;2024-01-30T06:33:46;19.30;;;15.17;;
3297;SDS011;1661;53.572;10.174;2024-01-30T06:36:13;22.40;;;16.30;;
3297;SDS011;1661;53.572;10.174;2024-01-30T06:38:40;23.23;;;16.70;;
3297;SDS011;1661;53.572;10.174;2024-01-30T06:41:08;24.97;;;17.17;;
3297;SDS011;1661;53.572;10.174;2024-01-30T06:43:35;30.20;;;18.07;;
3297;SDS011;1661;53.572;10.174;2024-01-30T06:46:02;22.17;;;17.37;;
3297;SDS011;1661;53.572;10.174;2024-01-30T06:48:28;23.63;;;16.70;;
3297;SDS011;1661;53.572;10.174;2024-01-30T06:50:56;26.17;;;17.23;;
3297;SDS011;1661;53.572;10.174;2024-01-30T06:53:25;28.30;;;16.43;;
3297;SDS011;1661;53.572;10.174;2024-01-30T06:55:52;26.33;;;17.67;;
3297;SDS011;1661;53.572;10.174;2024-01-30T06:58:20;22.20;;;16.40;;
3297;SDS011;1661;53.572;10.174;2024-01-30T07:00:47;18.43;;;15.13;;
3297;SDS011;1661;53.572;10.174;2024-01-30T07:03:14;23.33;;;17.23;;
3297;SDS011;1661;53.572;10.174;2024-01-30T07:05:41;22.80;;;17.20;;
3297;SDS011;1661;53.572;10.174;2024-01-30T07:08:07;22.23;;;14.83;;
3297;SDS011;1661;53.572;10.174;2024-01-30T07:10:34;20.37;;;15.50;;
3297;SDS011;1661;53.572;10.174;2024-01-30T07:13:01;24.70;;;18.40;;
3297;SDS011;1661;53.572;10.174;2024-01-30T07:15:30;23.47;;;17.37;;
3297;SDS011;1661;53.572;10.174;2024-01-30T07:17:57;20.57;;;15.93;;
3297;SDS011;1661;53.572;10.174;2024-01-30T07:20:24;26.30;;;17.17;;
3297;SDS011;1661;53.572;10.174;2024-01-30T07:22:51;19.63;;;15.37;;
3297;SDS011;1661;53.572;10.174;2024-01-30T07:25:18;22.60;;;17.17;;
3297;SDS011;1661;53.572;10.174;2024-01-30T07:27:44;24.93;;;16.33;;
3297;SDS011;1661;53.572;10.174;2024-01-30T07:30:13;22.70;;;16.47;;
3297;SDS011;1661;53.572;10.174;2024-01-30T07:32:43;23.03;;;17.50;;
3297;SDS011;1661;53.572;10.174;2024-01-30T07:35:10;31.93;;;18.30;;
3297;SDS011;1661;53.572;10.174;2024-01-30T07:37:37;29.43;;;18.30;;
3297;SDS011;1661;53.572;10.174;2024-01-30T07:40:04;24.50;;;17.93;;
3297;SDS011;1661;53.572;10.174;2024-01-30T07:42:32;29.80;;;17.93;;
3297;SDS011;1661;53.572;10.174;2024-01-30T07:45:00;30.33;;;16.67;;
3297;SDS011;1661;53.572;10.174;2024-01-30T07:47:27;28.13;;;17.53;;
3297;SDS011;1661;53.572;10.174;2024-01-30T07:49:55;21.00;;;16.27;;
3297;SDS011;1661;53.572;10.174;2024-01-30T07:52:22;25.57;;;17.47;;
3297;SDS011;1661;53.572;10.174;2024-01-30T07:54:49;23.70;;;18.17;;
3297;SDS011;1661;53.572;10.174;2024-01-30T07:57:15;27.87;;;19.50;;
3297;SDS011;1661;53.572;10.174;2024-01-30T07:59:42;28.83;;;17.53;;
3297;SDS011;1661;53.572;10.174;2024-01-30T08:02:10;24.10;;;18.33;;
3297;SDS011;1661;53.572;10.174;2024-01-30T08:04:38;31.73;;;18.70;;
3297;SDS011;1661;53.572;10.174;2024-01-30T08:07:06;23.90;;;17.13;;
3297;SDS011;1661;53.572;10.174;2024-01-30T08:09:33;24.70;;;18.83;;
3297;SDS011;1661;53.572;10.174;2024-01-30T08:12:00;26.50;;;16.93;;
3297;SDS011;1661;53.572;10.174;2024-01-30T08:14:26;25.70;;;17.53;;
3297;SDS011;1661;53.572;10.174;2024-01-30T08:16:53;22.87;;;16.30;;
3297;SDS011;1661;53.572;10.174;2024-01-30T08:19:20;28.27;;;18.30;;
3297;SDS011;1661;53.572;10.174;2024-01-30T08:21:47;29.77;;;18.83;;
3297;SDS011;1661;53.572;10.174;2024-01-30T08:24:15;24.87;;;17.70;;
3297;SDS011;1661;53.572;10.174;2024-01-30T08:26:42;28.87;;;19.43;;
3297;SDS011;1661;53.572;10.174;2024-01-30T08:29:08;21.63;;;16.00;;
3297;SDS011;1661;53.572;10.174;2024-01-30T08:31:35;25.80;;;19.10;;
3297;SDS011;1661;53.572;10.174;2024-01-30T08:34:02;26.53;;;19.37;;
3297;SDS011;1661;53.572;10.174;2024-01-30T08:36:29;35.10;;;18.30;;
3297;SDS011;1661;53.572;10.174;2024-01-30T08:38:55;27.97;;;18.13;;
3297;SDS011;1661;53.572;10.174;2024-01-30T08:41:24;24.10;;;18.77;;
3297;SDS011;1661;53.572;10.174;2024-01-30T08:43:51;27.63;;;18.70;;
3297;SDS011;1661;53.572;10.174;2024-01-30T08:46:18;28.53;;;20.80;;
3297;SDS011;1661;53.572;10.174;2024-01-30T08:48:45;21.83;;;18.20;;
3297;SDS011;1661;53.572;10.174;2024-01-30T08:51:12;26.90;;;20.00;;
3297;SDS011;1661;53.572;10.174;2024-01-30T08:53:40;24.90;;;18.50;;
3297;SDS011;1661;53.572;10.174;2024-01-30T08:56:07;31.63;;;20.53;;
3297;SDS011;1661;53.572;10.174;2024-01-30T08:58:35;26.87;;;18.50;;
3297;SDS011;1661;53.572;10.174;2024-01-30T09:01:02;23.50;;;18.37;;
3297;SDS011;1661;53.572;10.174;2024-01-30T09:03:30;30.70;;;18.70;;
3297;SDS011;1661;53.572;10.174;2024-01-30T09:05:57;25.50;;;17.60;;
3297;SDS011;1661;53.572;10.174;2024-01-30T09:08:23;30.83;;;17.93;;
3297;SDS011;1661;53.572;10.174;2024-01-30T09:10:50;25.57;;;19.20;;
3297;SDS011;1661;53.572;10.174;2024-01-30T09:13:17;25.50;;;18.93;;
3297;SDS011;1661;53.572;10.174;2024-01-30T09:15:45;29.90;;;19.73;;
3297;SDS011;1661;53.572;10.174;2024-01-30T09:18:12;31.30;;;18.40;;
3297;SDS011;1661;53.572;10.174;2024-01-30T09:20:39;24.20;;;18.30;;
3297;SDS011;1661;53.572;10.174;2024-01-30T09:23:06;26.70;;;20.60;;
3297;SDS011;1661;53.572;10.174;2024-01-30T09:25:33;24.50;;;18.90;;
3297;SDS011;1661;53.572;10.174;2024-01-30T09:28:00;24.30;;;17.33;;
3297;SDS011;1661;53.572;10.174;2024-01-30T09:30:27;22.07;;;18.33;;
3297;SDS011;1661;53.572;10.174;2024-01-30T09:32:55;23.50;;;18.67;;
3297;SDS011;1661;53.572;10.174;2024-01-30T09:35:21;30.10;;;18.50;;
3297;SDS011;1661;53.572;10.174;2024-01-30T09:37:48;27.10;;;17.63;;
3297;SDS011;1661;53.572;10.174;2024-01-30T09:40:16;32.17;;;16.63;;
3297;SDS011;1661;53.572;10.174;2024-01-30T09:42:44;23.87;;;17.20;;
3297;SDS011;1661;53.572;10.174;2024-01-30T09:45:14;23.67;;;16.17;;
3297;SDS011;1661;53.572;10.174;2024-01-30T09:47:41;21.77;;;17.53;;
3297;SDS011;1661;53.572;10.174;2024-01-30T09:50:11;23.40;;;16.90;;
3297;SDS011;1661;53.572;10.174;2024-01-30T09:52:39;23.07;;;16.60;;
3297;SDS011;1661;53.572;10.174;2024-01-30T09:55:06;19.60;;;15.43;;
3297;SDS011;1661;53.572;10.174;2024-01-30T09:57:33;27.20;;;17.40;;
3297;SDS011;1661;53.572;10.174;2024-01-30T10:00:00;26.27;;;17.80;;
3297;SDS011;1661;53.572;10.174;2024-01-30T10:02:27;18.40;;;16.40;;
3297;SDS011;1661;53.572;10.174;2024-01-30T10:04:54;22.67;;;16.00;;
3297;SDS011;1661;53.572;10.174;2024-01-30T10:07:22;22.20;;;15.63;;
3297;SDS011;1661;53.572;10.174;2024-01-30T10:09:49;22.43;;;17.40;;
3297;SDS011;1661;53.572;10.174;2024-01-30T10:12:16;21.77;;;16.47;;
3297;SDS011;1661;53.572;10.174;2024-01-30T10:14:43;24.33;;;17.53;;
3297;SDS011;1661;53.572;10.174;2024-01-30T10:17:10;20.90;;;15.80;;
3297;SDS011;1661;53.572;10.174;2024-01-30T10:19:38;23.93;;;16.23;;
3297;SDS011;1661;53.572;10.174;2024-01-30T10:22:06;19.87;;;15.90;;
3297;SDS011;1661;53.572;10.174;2024-01-30T10:24:35;24.07;;;16.33;;
3297;SDS011;1661;53.572;10.174;2024-01-30T10:27:02;25.93;;;17.77;;
3297;SDS011;1661;53.572;10.174;2024-01-30T10:29:31;22.60;;;17.30;;
3297;SDS011;1661;53.572;10.174;2024-01-30T10:31:58;22.83;;;16.20;;
3297;SDS011;1661;53.572;10.174;2024-01-30T10:34:26;21.67;;;14.97;;
3297;SDS011;1661;53.572;10.174;2024-01-30T10:36:55;19.07;;;15.67;;
3297;SDS011;1661;53.572;10.174;2024-01-30T10:39:28;24.80;;;16.60;;
3297;SDS011;1661;53.572;10.174;2024-01-30T10:41:58;27.33;;;16.90;;
3297;SDS011;1661;53.572;10.174;2024-01-30T10:44:30;27.77;;;17.23;;
3297;SDS011;1661;53.572;10.174;2024-01-30T10:47:06;24.47;;;16.60;;
3297;SDS011;1661;53.572;10.174;2024-01-30T10:49:37;22.47;;;16.30;;
3297;SDS011;1661;53.572;10.174;2024-01-30T10:52:05;21.87;;;16.63;;
3297;SDS011;1661;53.572;10.174;2024-01-30T10:54:34;21.83;;;14.77;;
3297;SDS011;1661;53.572;10.174;2024-01-30T10:57:04;20.13;;;16.70;;
3297;SDS011;1661;53.572;10.174;2024-01-30T10:59:31;18.90;;;16.17;;
3297;SDS011;1661;53.572;10.174;2024-01-30T11:01:59;25.23;;;15.00;;
3297;SDS011;1661;53.572;10.174;2024-01-30T11:04:27;21.27;;;15.53;;
3297;SDS011;1661;53.572;10.174;2024-01-30T11:07:01;20.03;;;15.60;;
3297;SDS011;1661;53.572;10.174;2024-01-30T11:09:29;19.90;;;14.23;;
3297;SDS011;1661;53.572;10.174;2024-01-30T11:11:56;19.73;;;14.53;;
3297;SDS011;1661;53.572;10.174;2024-01-30T11:14:26;21.87;;;14.80;;
3297;SDS011;1661;53.572;10.174;2024-01-30T11:16:56;16.83;;;15.03;;
3297;SDS011;1661;53.572;10.174;2024-01-30T11:19:24;18.47;;;15.47;;
3297;SDS011;1661;53.572;10.174;2024-01-30T11:21:52;21.33;;;16.20;;
3297;SDS011;1661;53.572;10.174;2024-01-30T11:24:19;20.30;;;14.90;;
3297;SDS011;1661;53.572;10.174;2024-01-30T11:26:47;18.60;;;14.27;;
3297;SDS011;1661;53.572;10.174;2024-01-30T11:29:15;20.90;;;15.20;;
3297;SDS011;1661;53.572;10.174;2024-01-30T11:31:52;18.57;;;14.40;;
3297;SDS011;1661;53.572;10.174;2024-01-30T11:34:20;20.43;;;15.07;;
3297;SDS011;1661;53.572;10.174;2024-01-30T11:36:48;22.33;;;14.07;;
3297;SDS011;1661;53.572;10.174;2024-01-30T11:39:20;20.60;;;13.90;;
3297;SDS011;1661;53.572;10.174;2024-01-30T11:41:47;19.27;;;14.20;;
3297;SDS011;1661;53.572;10.174;2024-01-30T11:44:16;18.10;;;14.70;;
3297;SDS011;1661;53.572;10.174;2024-01-30T11:46:43;20.00;;;14.80;;
3297;SDS011;1661;53.572;10.174;2024-01-30T11:49:11;20.33;;;15.97;;
3297;SDS011;1661;53.572;10.174;2024-01-30T11:51:38;19.27;;;13.73;;
3297;SDS011;1661;53.572;10.174;2024-01-30T11:54:05;17.97;;;13.50;;
3297;SDS011;1661;53.572;10.174;2024-01-30T11:56:33;19.80;;;13.60;;
3297;SDS011;1661;53.572;10.174;2024-01-30T11:59:00;18.63;;;14.60;;
3297;SDS011;1661;53.572;10.174;2024-01-30T12:01:27;27.27;;;15.40;;
3297;SDS011;1661;53.572;10.174;2024-01-30T12:03:54;17.40;;;14.53;;
3297;SDS011;1661;53.572;10.174;2024-01-30T12:06:23;17.43;;;13.27;;
3297;SDS011;1661;53.572;10.174;2024-01-30T12:08:56;18.73;;;14.87;;
3297;SDS011;1661;53.572;10.174;2024-01-30T12:11:24;19.93;;;13.03;;
3297;SDS011;1661;53.572;10.174;2024-01-30T12:13:51;18.83;;;12.80;;
3297;SDS011;1661;53.572;10.174;2024-01-30T12:16:19;17.13;;;12.43;;
3297;SDS011;1661;53.572;10.174;2024-01-30T12:18:46;21.93;;;13.67;;
3297;SDS011;1661;53.572;10.174;2024-01-30T12:21:15;17.13;;;13.33;;
3297;SDS011;1661;53.572;10.174;2024-01-30T12:23:44;13.73;;;12.33;;
3297;SDS011;1661;53.572;10.174;2024-01-30T12:26:11;18.20;;;13.93;;
3297;SDS011;1661;53.572;10.174;2024-01-30T12:28:47;20.20;;;14.30;;
3297;SDS011;1661;53.572;10.174;2024-01-30T12:31:15;15.23;;;11.90;;
3297;SDS011;1661;53.572;10.174;2024-01-30T12:33:42;19.87;;;13.53;;
3297;SDS011;1661;53.572;10.174;2024-01-30T12:36:08;15.77;;;13.40;;
3297;SDS011;1661;53.572;10.174;2024-01-30T12:38:35;18.50;;;13.20;;
3297;SDS011;1661;53.572;10.174;2024-01-30T12:41:04;20.57;;;14.10;;
3297;SDS011;1661;53.572;10.174;2024-01-30T12:43:33;16.13;;;12.33;;
3297;SDS011;1661;53.572;10.174;2024-01-30T12:46:00;17.00;;;12.97;;
3297;SDS011;1661;53.572;10.174;2024-01-30T12:48:27;21.40;;;15.07;;
3297;SDS011;1661;53.572;10.174;2024-01-30T12:50:55;15.43;;;12.77;;
3297;SDS011;1661;53.572;10.174;2024-01-30T12:53:22;19.30;;;12.20;;
3297;SDS011;1661;53.572;10.174;2024-01-30T12:55:48;13.00;;;11.63;;
3297;SDS011;1661;53.572;10.174;2024-01-30T12:58:16;17.27;;;12.97;;
3297;SDS011;1661;53.572;10.174;2024-01-30T13:00:43;20.50;;;14.47;;
3297;SDS011;1661;53.572;10.174;2024-01-30T13:03:10;22.73;;;14.87;;
3297;SDS011;1661;53.572;10.174;2024-01-30T13:05:37;15.67;;;14.10;;
3297;SDS011;1661;53.572;10.174;2024-01-30T13:08:04;26.03;;;14.00;;
3297;SDS011;1661;53.572;10.174;2024-01-30T13:10:31;19.60;;;15.63;;
3297;SDS011;1661;53.572;10.174;2024-01-30T13:12:58;28.10;;;16.00;;
3297;SDS011;1661;53.572;10.174;2024-01-30T13:15:26;19.93;;;13.90;;
3297;SDS011;1661;53.572;10.174;2024-01-30T13:17:53;22.07;;;14.53;;
3297;SDS011;1661;53.572;10.174;2024-01-30T13:20:20;20.03;;;15.70;;
3297;SDS011;1661;53.572;10.174;2024-01-30T13:22:47;19.30;;;13.33;;
3297;SDS011;1661;53.572;10.174;2024-01-30T13:25:15;20.47;;;13.70;;
3297;SDS011;1661;53.572;10.174;2024-01-30T13:27:42;20.17;;;13.80;;
3297;SDS011;1661;53.572;10.174;2024-01-30T13:30:09;19.27;;;14.87;;
3297;SDS011;1661;53.572;10.174;2024-01-30T13:32:37;20.83;;;13.63;;
3297;SDS011;1661;53.572;10.174;2024-01-30T13:35:06;26.10;;;13.47;;
3297;SDS011;1661;53.572;10.174;2024-01-30T13:37:33;25.70;;;17.00;;
3297;SDS011;1661;53.572;10.174;2024-01-30T13:40:00;17.23;;;12.93;;
3297;SDS011;1661;53.572;10.174;2024-01-30T13:42:27;22.47;;;13.97;;
3297;SDS011;1661;53.572;10.174;2024-01-30T13:44:54;20.00;;;13.63;;
3297;SDS011;1661;53.572;10.174;2024-01-30T13:47:20;19.07;;;14.37;;
3297;SDS011;1661;53.572;10.174;2024-01-30T13:49:49;22.43;;;13.07;;
3297;SDS011;1661;53.572;10.174;2024-01-30T13:52:17;18.17;;;13.50;;
3297;SDS011;1661;53.572;10.174;2024-01-30T13:54:44;15.67;;;12.67;;
3297;SDS011;1661;53.572;10.174;2024-01-30T13:57:11;20.20;;;11.47;;
3297;SDS011;1661;53.572;10.174;2024-01-30T13:59:38;19.50;;;13.43;;
3297;SDS011;1661;53.572;10.174;2024-01-30T14:02:05;21.07;;;13.60;;
3297;SDS011;1661;53.572;10.174;2024-01-30T14:04:33;16.13;;;13.40;;
3297;SDS011;1661;53.572;10.174;2024-01-30T14:07:03;18.57;;;14.77;;
3297;SDS011;1661;53.572;10.174;2024-01-30T14:09:31;19.57;;;12.37;;
3297;SDS011;1661;53.572;10.174;2024-01-30T14:11:59;20.70;;;13.50;;
3297;SDS011;1661;53.572;10.174;2024-01-30T14:14:26;19.77;;;14.07;;
3297;SDS011;1661;53.572;10.174;2024-01-30T14:16:52;16.50;;;12.80;;
3297;SDS011;1661;53.572;10.174;2024-01-30T14:19:19;21.13;;;12.10;;
3297;SDS011;1661;53.572;10.174;2024-01-30T14:21:46;22.73;;;13.70;;
3297;SDS011;1661;53.572;10.174;2024-01-30T14:24:14;17.53;;;13.40;;
3297;SDS011;1661;53.572;10.174;2024-01-30T14:26:41;20.07;;;13.60;;
3297;SDS011;1661;53.572;10.174;2024-01-30T14:29:09;22.13;;;13.90;;
3297;SDS011;1661;53.572;10.174;2024-01-30T14:31:36;23.40;;;13.37;;
3297;SDS011;1661;53.572;10.174;2024-01-30T14:34:03;17.87;;;10.90;;
3297;SDS011;1661;53.572;10.174;2024-01-30T14:36:29;19.67;;;13.57;;